PWSweather.com
Personal Weather Stations
Station Observations
133525
French Quarters West Seneca , West Seneca, NY 14224

French Quarters West Seneca West Seneca, NY 14224

Lat: 42.850058, Lon: -78.799754

Elevation: 603

Station Type: Davis Vantage Vue pro2

http://westsenecaweather.com/

Latest ConditionsUpdated 2:50:02 PM EST Sunday, Nov 19, 2017
Currently Today's Max Today's Min Today's Average
Temperature 38.3°F3.5°C 47.8°F8.8°C 34.3°F1.3°C 38.2°F3.4°C
Dew Point 31.7°F-0.2°C 47.0°F8.3°C 30.0°F-1.1°C 34.1°F1.2°C
Winds 6.9 mph ENE11.1 kmh ENE 12.7 mph E20.4 kmh E - 7.8 mph 12.6 kmh
Wind Gusts 16.1 mph25.9 kmh 26.5 mph42.6 kmh - -
Humidity 77% 97% 70% 85%
Pressure 29.67 in1004.7 mb 29.67 in1004.7 mb 29.05 in983.7 mb -
Precipitation - 0.25 in6.4 mm - -
Hour Temp Dew Point Humidity Winds Wind Gusts Pressure Precip Precip Rate Daily Precip Total
02:50 PM 38.3°F3.5°C 31.7°F-0.2°C 77% 6.9 mph ENE11.1 kmh ENE 16.1 mph25.9 kmh 29.67 in1004.7 mb - 0.00 in0.0 mm 0.25 in6.4 mm
02:40 PM 38.4°F3.6°C 31.8°F-0.1°C 77% 6.9 mph E11.1 kmh E 11.5 mph18.5 kmh 29.66 in1004.4 mb - 0.00 in0.0 mm 0.25 in6.4 mm
02:30 PM 38.6°F3.7°C 32.0°F0.0°C 77% 8.1 mph NE13.0 kmh NE 11.5 mph18.5 kmh 29.66 in1004.4 mb - 0.00 in0.0 mm 0.25 in6.4 mm
02:20 PM 38.7°F3.7°C 31.5°F-0.3°C 75% 6.9 mph NE11.1 kmh NE 9.2 mph14.8 kmh 29.66 in1004.4 mb - 0.00 in0.0 mm 0.25 in6.4 mm
02:10 PM 38.7°F3.7°C 31.8°F-0.1°C 76% 6.9 mph NE11.1 kmh NE 12.7 mph20.4 kmh 29.66 in1004.4 mb - 0.00 in0.0 mm 0.25 in6.4 mm
02:00 PM 38.8°F3.8°C 30.9°F-0.6°C 73% 4.6 mph NE7.4 kmh NE 9.2 mph14.8 kmh 29.66 in1004.4 mb - 0.00 in0.0 mm 0.25 in6.4 mm
01:50 PM 38.8°F3.8°C 30.2°F-1.0°C 71% 8.1 mph NE13.0 kmh NE 11.5 mph18.5 kmh 29.66 in1004.4 mb - 0.00 in0.0 mm 0.25 in6.4 mm
01:40 PM 39.0°F3.9°C 30.0°F-1.1°C 70% 8.1 mph E13.0 kmh E 9.2 mph14.8 kmh 29.66 in1004.4 mb - 0.00 in0.0 mm 0.25 in6.4 mm
01:30 PM 39.0°F3.9°C 30.4°F-0.9°C 71% 5.8 mph E9.3 kmh E 12.7 mph20.4 kmh 29.66 in1004.4 mb - 0.00 in0.0 mm 0.25 in6.4 mm
01:20 PM 39.0°F3.9°C 30.4°F-0.9°C 71% 6.9 mph NE11.1 kmh NE 16.1 mph25.9 kmh 29.65 in1004.1 mb - 0.00 in0.0 mm 0.25 in6.4 mm
01:10 PM 38.8°F3.8°C 30.2°F-1.0°C 71% 5.8 mph ENE9.3 kmh ENE 11.5 mph18.5 kmh 29.65 in1004.1 mb - 0.00 in0.0 mm 0.25 in6.4 mm
01:00 PM 38.6°F3.7°C 30.7°F-0.7°C 73% 5.8 mph ENE9.3 kmh ENE 10.4 mph16.7 kmh 29.65 in1004.1 mb - 0.00 in0.0 mm 0.25 in6.4 mm
12:50 PM 38.4°F3.6°C 31.2°F-0.4°C 75% 9.2 mph NE14.8 kmh NE 11.5 mph18.5 kmh 29.65 in1004.1 mb - 0.00 in0.0 mm 0.25 in6.4 mm
12:40 PM 38.0°F3.3°C 31.8°F-0.1°C 78% 5.8 mph ENE9.3 kmh ENE 8.1 mph13.0 kmh 29.65 in1004.1 mb - 0.00 in0.0 mm 0.25 in6.4 mm
12:30 PM 37.6°F3.1°C 32.0°F0.0°C 80% 8.1 mph NE13.0 kmh NE 11.5 mph18.5 kmh 29.65 in1004.1 mb - 0.00 in0.0 mm 0.25 in6.4 mm
12:20 PM 37.7°F3.2°C 32.4°F0.2°C 81% 6.9 mph ENE11.1 kmh ENE 12.7 mph20.4 kmh 29.65 in1004.1 mb - 0.00 in0.0 mm 0.25 in6.4 mm
12:10 PM 37.8°F3.2°C 32.8°F0.4°C 82% 6.9 mph ENE11.1 kmh ENE 11.5 mph18.5 kmh 29.65 in1004.1 mb - 0.00 in0.0 mm 0.25 in6.4 mm
12:00 PM 37.7°F3.2°C 32.4°F0.2°C 81% 8.1 mph ENE13.0 kmh ENE 9.2 mph14.8 kmh 29.65 in1004.1 mb - 0.00 in0.0 mm 0.25 in6.4 mm
11:50 AM 37.6°F3.1°C 32.3°F0.2°C 81% 5.8 mph E9.3 kmh E 10.4 mph16.7 kmh 29.65 in1004.1 mb - 0.00 in0.0 mm 0.25 in6.4 mm
11:40 AM 37.4°F3.0°C 32.1°F0.1°C 81% 6.9 mph E11.1 kmh E 9.2 mph14.8 kmh 29.65 in1004.1 mb - 0.00 in0.0 mm 0.25 in6.4 mm
11:30 AM 37.5°F3.1°C 31.9°F-0.1°C 80% 6.9 mph ENE11.1 kmh ENE 11.5 mph18.5 kmh 29.66 in1004.4 mb - 0.00 in0.0 mm 0.25 in6.4 mm
11:20 AM 37.8°F3.2°C 31.6°F-0.2°C 78% 6.9 mph NE11.1 kmh NE 9.2 mph14.8 kmh 29.66 in1004.4 mb - 0.00 in0.0 mm 0.25 in6.4 mm
11:10 AM 38.1°F3.4°C 31.2°F-0.4°C 76% 8.1 mph NE13.0 kmh NE 10.4 mph16.7 kmh 29.66 in1004.4 mb - 0.00 in0.0 mm 0.25 in6.4 mm
11:00 AM 38.4°F3.6°C 31.2°F-0.4°C 75% 8.1 mph NE13.0 kmh NE 11.5 mph18.5 kmh 29.65 in1004.1 mb - 0.00 in0.0 mm 0.25 in6.4 mm
10:50 AM 38.4°F3.6°C 30.8°F-0.7°C 74% 10.4 mph ENE16.7 kmh ENE 16.1 mph25.9 kmh 29.65 in1004.1 mb - 0.00 in0.0 mm 0.25 in6.4 mm
10:40 AM 38.4°F3.6°C 30.8°F-0.7°C 74% 6.9 mph NE11.1 kmh NE 12.7 mph20.4 kmh 29.65 in1004.1 mb - 0.00 in0.0 mm 0.25 in6.4 mm
10:30 AM 38.3°F3.5°C 31.1°F-0.5°C 75% 9.2 mph NE14.8 kmh NE 12.7 mph20.4 kmh 29.64 in1003.7 mb - 0.00 in0.0 mm 0.25 in6.4 mm
10:20 AM 38.1°F3.4°C 30.9°F-0.6°C 75% 8.1 mph NE13.0 kmh NE 11.5 mph18.5 kmh 29.64 in1003.7 mb - 0.00 in0.0 mm 0.25 in6.4 mm
10:10 AM 38.0°F3.3°C 31.7°F-0.2°C 78% 5.8 mph ENE9.3 kmh ENE 11.5 mph18.5 kmh 29.63 in1003.4 mb - 0.00 in0.0 mm 0.25 in6.4 mm
10:00 AM 37.9°F3.3°C 31.7°F-0.2°C 78% 6.9 mph NNE11.1 kmh NNE 8.1 mph13.0 kmh 29.63 in1003.4 mb - 0.00 in0.0 mm 0.25 in6.4 mm
09:50 AM 37.6°F3.1°C 31.7°F-0.2°C 79% 6.9 mph NE11.1 kmh NE 12.7 mph20.4 kmh 29.62 in1003.0 mb - 0.00 in0.0 mm 0.25 in6.4 mm
09:40 AM 37.2°F2.9°C 31.6°F-0.2°C 80% 5.8 mph NE9.3 kmh NE 8.1 mph13.0 kmh 29.62 in1003.0 mb - 0.00 in0.0 mm 0.25 in6.4 mm
09:30 AM 36.9°F2.7°C 31.6°F-0.2°C 81% 5.8 mph NNE9.3 kmh NNE 9.2 mph14.8 kmh 29.62 in1003.0 mb - 0.00 in0.0 mm 0.25 in6.4 mm
09:20 AM 36.8°F2.7°C 31.8°F-0.1°C 82% 8.1 mph NE13.0 kmh NE 13.8 mph22.2 kmh 29.62 in1003.0 mb - 0.00 in0.0 mm 0.25 in6.4 mm
09:10 AM 36.7°F2.6°C 31.7°F-0.2°C 82% 6.9 mph NE11.1 kmh NE 15.0 mph24.1 kmh 29.61 in1002.7 mb - 0.00 in0.0 mm 0.25 in6.4 mm
09:00 AM 36.8°F2.7°C 31.8°F-0.1°C 82% 8.1 mph NE13.0 kmh NE 11.5 mph18.5 kmh 29.61 in1002.7 mb - 0.00 in0.0 mm 0.25 in6.4 mm
08:50 AM 36.9°F2.7°C 32.2°F0.1°C 83% 5.8 mph NE9.3 kmh NE 10.4 mph16.7 kmh 29.60 in1002.4 mb - 0.00 in0.0 mm 0.25 in6.4 mm
08:40 AM 36.9°F2.7°C 32.2°F0.1°C 83% 8.1 mph NE13.0 kmh NE 15.0 mph24.1 kmh 29.60 in1002.4 mb - 0.00 in0.0 mm 0.25 in6.4 mm
08:30 AM 37.0°F2.8°C 32.3°F0.2°C 83% 5.8 mph NE9.3 kmh NE 11.5 mph18.5 kmh 29.59 in1002.0 mb - 0.00 in0.0 mm 0.25 in6.4 mm
08:20 AM 37.0°F2.8°C 32.6°F0.3°C 84% 5.8 mph NE9.3 kmh NE 11.5 mph18.5 kmh 29.58 in1001.7 mb - 0.00 in0.0 mm 0.25 in6.4 mm
08:10 AM 36.9°F2.7°C 32.5°F0.3°C 84% 4.6 mph NE7.4 kmh NE 9.2 mph14.8 kmh 29.57 in1001.4 mb - 0.00 in0.0 mm 0.25 in6.4 mm
08:00 AM 36.9°F2.7°C 32.5°F0.3°C 84% 8.1 mph NE13.0 kmh NE 15.0 mph24.1 kmh 29.57 in1001.4 mb - 0.00 in0.0 mm 0.25 in6.4 mm
07:50 AM 37.0°F2.8°C 32.3°F0.2°C 83% 8.1 mph NE13.0 kmh NE 10.4 mph16.7 kmh 29.56 in1001.0 mb - 0.00 in0.0 mm 0.25 in6.4 mm
07:40 AM 37.0°F2.8°C 32.0°F0.0°C 82% 5.8 mph NE9.3 kmh NE 8.1 mph13.0 kmh 29.55 in1000.7 mb - 0.00 in0.0 mm 0.25 in6.4 mm
07:30 AM 37.0°F2.8°C 31.7°F-0.2°C 81% 3.5 mph ENE5.6 kmh ENE 11.5 mph18.5 kmh 29.54 in1000.3 mb - 0.00 in0.0 mm 0.25 in6.4 mm
07:20 AM 37.0°F2.8°C 31.7°F-0.2°C 81% 8.1 mph E13.0 kmh E 10.4 mph16.7 kmh 29.53 in1000.0 mb - 0.00 in0.0 mm 0.25 in6.4 mm
07:10 AM 37.0°F2.8°C 32.0°F0.0°C 82% 8.1 mph E13.0 kmh E 11.5 mph18.5 kmh 29.52 in999.7 mb - 0.00 in0.0 mm 0.25 in6.4 mm
07:00 AM 37.0°F2.8°C 32.9°F0.5°C 85% 8.1 mph E13.0 kmh E 15.0 mph24.1 kmh 29.51 in999.3 mb - 0.00 in0.0 mm 0.25 in6.4 mm
06:50 AM 37.0°F2.8°C 32.9°F0.5°C 85% 6.9 mph NE11.1 kmh NE 12.7 mph20.4 kmh 29.50 in999.0 mb - 0.00 in0.0 mm 0.25 in6.4 mm
06:40 AM 37.0°F2.8°C 32.9°F0.5°C 85% 10.4 mph ENE16.7 kmh ENE 16.1 mph25.9 kmh 29.50 in999.0 mb - 0.00 in0.0 mm 0.25 in6.4 mm
06:30 AM 37.0°F2.8°C 33.2°F0.7°C 86% 6.9 mph ENE11.1 kmh ENE 8.1 mph13.0 kmh 29.48 in998.3 mb - 0.01 in0.3 mm 0.25 in6.4 mm
06:20 AM 36.8°F2.7°C 33.6°F0.9°C 88% 10.4 mph E16.7 kmh E 13.8 mph22.2 kmh 29.48 in998.3 mb - 0.00 in0.0 mm 0.24 in6.1 mm
06:10 AM 36.6°F2.6°C 33.9°F1.1°C 90% 10.4 mph NE16.7 kmh NE 12.7 mph20.4 kmh 29.47 in998.0 mb - 0.00 in0.0 mm 0.24 in6.1 mm
06:00 AM 36.1°F2.3°C 34.5°F1.4°C 94% 6.9 mph NE11.1 kmh NE 16.1 mph25.9 kmh 29.46 in997.6 mb - 0.00 in0.0 mm 0.24 in6.1 mm
05:50 AM 35.7°F2.1°C 34.1°F1.2°C 94% 4.6 mph NNE7.4 kmh NNE 6.9 mph11.1 kmh 29.45 in997.3 mb - 0.00 in0.0 mm 0.24 in6.1 mm
05:40 AM 35.5°F1.9°C 33.9°F1.1°C 94% 8.1 mph NE13.0 kmh NE 12.7 mph20.4 kmh 29.45 in997.3 mb - 0.00 in0.0 mm 0.24 in6.1 mm
05:30 AM 35.3°F1.8°C 34.0°F1.1°C 95% 3.5 mph ENE5.6 kmh ENE 3.5 mph5.6 kmh 29.44 in997.0 mb - 0.00 in0.0 mm 0.24 in6.1 mm
05:20 AM 35.1°F1.7°C 33.8°F1.0°C 95% 6.9 mph ENE11.1 kmh ENE 9.2 mph14.8 kmh 29.44 in997.0 mb - 0.00 in0.0 mm 0.24 in6.1 mm
05:10 AM 34.5°F1.4°C 33.3°F0.7°C 95% 8.1 mph ENE13.0 kmh ENE 12.7 mph20.4 kmh 29.42 in996.3 mb - 0.00 in0.0 mm 0.24 in6.1 mm
05:00 AM 34.3°F1.3°C 32.7°F0.4°C 94% 8.1 mph ENE13.0 kmh ENE 11.5 mph18.5 kmh 29.41 in995.9 mb - 0.00 in0.0 mm 0.24 in6.1 mm
04:50 AM 34.6°F1.4°C 33.1°F0.6°C 94% 12.7 mph E20.4 kmh E 19.6 mph31.5 kmh 29.40 in995.6 mb - 0.01 in0.3 mm 0.24 in6.1 mm
04:40 AM 34.9°F1.6°C 33.4°F0.8°C 94% 12.7 mph E20.4 kmh E 23.0 mph37.0 kmh 29.39 in995.3 mb - 0.00 in0.0 mm 0.23 in5.8 mm
04:30 AM 34.6°F1.4°C 33.1°F0.6°C 94% 9.2 mph E14.8 kmh E 15.0 mph24.1 kmh 29.37 in994.6 mb - 0.01 in0.3 mm 0.23 in5.8 mm
04:20 AM 34.8°F1.6°C 33.2°F0.7°C 94% 6.9 mph ENE11.1 kmh ENE 10.4 mph16.7 kmh 29.36 in994.2 mb - 0.00 in0.0 mm 0.22 in5.6 mm
04:10 AM 34.7°F1.5°C 33.2°F0.7°C 94% 5.8 mph ENE9.3 kmh ENE 11.5 mph18.5 kmh 29.34 in993.6 mb - 0.01 in0.3 mm 0.22 in5.6 mm
04:00 AM 34.7°F1.5°C 33.2°F0.7°C 94% 9.2 mph E14.8 kmh E 16.1 mph25.9 kmh 29.33 in993.2 mb - 0.00 in0.0 mm 0.21 in5.3 mm
03:50 AM 34.8°F1.6°C 33.2°F0.7°C 94% 10.4 mph E16.7 kmh E 15.0 mph24.1 kmh 29.31 in992.6 mb - 0.01 in0.3 mm 0.21 in5.3 mm
03:40 AM 35.1°F1.7°C 33.3°F0.7°C 93% 9.2 mph E14.8 kmh E 18.4 mph29.6 kmh 29.30 in992.2 mb - 0.00 in0.0 mm 0.20 in5.1 mm
03:30 AM 35.8°F2.1°C 34.0°F1.1°C 93% 12.7 mph E20.4 kmh E 26.5 mph42.6 kmh 29.29 in991.9 mb - 0.01 in0.3 mm 0.20 in5.1 mm
03:20 AM 36.2°F2.3°C 34.3°F1.3°C 93% 11.5 mph E18.5 kmh E 17.3 mph27.8 kmh 29.27 in991.2 mb - 0.01 in0.3 mm 0.19 in4.8 mm
03:10 AM 36.4°F2.4°C 34.6°F1.4°C 93% 9.2 mph E14.8 kmh E 13.8 mph22.2 kmh 29.26 in990.9 mb - 0.00 in0.0 mm 0.18 in4.6 mm
03:00 AM 36.6°F2.6°C 34.8°F1.6°C 93% 8.1 mph E13.0 kmh E 11.5 mph18.5 kmh 29.25 in990.5 mb - 0.00 in0.0 mm 0.18 in4.6 mm
02:50 AM 36.6°F2.6°C 34.8°F1.6°C 93% 10.4 mph E16.7 kmh E 13.8 mph22.2 kmh 29.24 in990.2 mb - 0.01 in0.3 mm 0.18 in4.6 mm
02:40 AM 36.9°F2.7°C 34.8°F1.6°C 92% 10.4 mph E16.7 kmh E 16.1 mph25.9 kmh 29.24 in990.2 mb - 0.00 in0.0 mm 0.17 in4.3 mm
02:30 AM 37.9°F3.3°C 35.8°F2.1°C 92% 10.4 mph E16.7 kmh E 20.7 mph33.3 kmh 29.22 in989.5 mb - 0.01 in0.3 mm 0.17 in4.3 mm
02:20 AM 38.9°F3.8°C 37.1°F2.8°C 93% 10.4 mph E16.7 kmh E 16.1 mph25.9 kmh 29.20 in988.8 mb - 0.00 in0.0 mm 0.16 in4.1 mm
02:10 AM 39.5°F4.2°C 37.6°F3.1°C 93% 10.4 mph E16.7 kmh E 12.7 mph20.4 kmh 29.18 in988.1 mb - 0.01 in0.3 mm 0.16 in4.1 mm
02:00 AM 40.2°F4.6°C 38.6°F3.7°C 94% 6.9 mph E11.1 kmh E 15.0 mph24.1 kmh 29.17 in987.8 mb - 0.01 in0.3 mm 0.15 in3.8 mm
01:50 AM 40.6°F4.8°C 39.0°F3.9°C 94% 12.7 mph E20.4 kmh E 20.7 mph33.3 kmh 29.15 in987.1 mb - 0.01 in0.3 mm 0.14 in3.6 mm
01:40 AM 40.9°F4.9°C 39.6°F4.2°C 95% 6.9 mph E11.1 kmh E 8.1 mph13.0 kmh 29.14 in986.8 mb - 0.03 in0.8 mm 0.13 in3.3 mm
01:30 AM 41.2°F5.1°C 39.9°F4.4°C 95% 11.5 mph E18.5 kmh E 18.4 mph29.6 kmh 29.13 in986.5 mb - 0.01 in0.3 mm 0.10 in2.5 mm
01:20 AM 41.4°F5.2°C 40.1°F4.5°C 95% 10.4 mph E16.7 kmh E 15.0 mph24.1 kmh 29.11 in985.8 mb - 0.04 in1.0 mm 0.10 in2.5 mm
01:10 AM 42.5°F5.8°C 40.9°F4.9°C 94% 12.7 mph E20.4 kmh E 19.6 mph31.5 kmh 29.10 in985.4 mb - 0.01 in0.3 mm 0.06 in1.5 mm
01:00 AM 45.4°F7.4°C 44.0°F6.7°C 95% 10.4 mph E16.7 kmh E 18.4 mph29.6 kmh 29.07 in984.4 mb - 0.01 in0.3 mm 0.06 in1.5 mm
12:50 AM 46.9°F8.3°C 45.8°F7.7°C 96% 8.1 mph E13.0 kmh E 13.8 mph22.2 kmh 29.06 in984.1 mb - 0.01 in0.3 mm 0.05 in1.3 mm
12:40 AM 47.2°F8.4°C 46.4°F8.0°C 97% 9.2 mph E14.8 kmh E 11.5 mph18.5 kmh 29.06 in984.1 mb - 0.00 in0.0 mm 0.04 in1.0 mm
12:30 AM 47.8°F8.8°C 47.0°F8.3°C 97% 5.8 mph E9.3 kmh E 11.5 mph18.5 kmh 29.05 in983.7 mb - 0.01 in0.3 mm 0.04 in1.0 mm
12:20 AM 47.8°F8.8°C 47.0°F8.3°C 97% 6.9 mph E11.1 kmh E 9.2 mph14.8 kmh 29.05 in983.7 mb - 0.02 in0.5 mm 0.04 in1.0 mm
12:10 AM 47.6°F8.7°C 46.8°F8.2°C 97% Calm Calm -- 29.05 in983.7 mb - 0.02 in0.5 mm 0.02 in0.5 mm
12:00 AM 47.6°F8.7°C 46.8°F8.2°C 97% Calm Calm -- 29.05 in983.7 mb - 0.01 in0.3 mm 0.01 in0.3 mm